createdAt,value
2023-10-29T00:01:32.766Z,100.00
2023-10-29T00:11:35.460Z,100.00
2023-10-29T00:21:38.790Z,100.00
2023-10-29T00:31:41.324Z,100.00
2023-10-29T00:41:43.968Z,100.00
2023-10-29T00:51:46.604Z,100.00
2023-10-29T01:01:49.732Z,100.00
2023-10-29T01:11:52.291Z,100.00
2023-10-29T01:21:55.384Z,100.00
2023-10-29T01:31:58.042Z,100.00
2023-10-29T01:42:00.603Z,100.00
2023-10-29T01:52:03.081Z,100.00
2023-10-29T02:02:06.480Z,100.00
2023-10-29T02:12:09.083Z,100.00
2023-10-29T02:22:11.599Z,100.00
2023-10-29T02:32:14.110Z,100.00
2023-10-29T02:42:18.453Z,100.00
2023-10-29T02:52:21.124Z,100.00
2023-10-29T03:02:23.675Z,100.00
2023-10-29T03:12:26.322Z,100.00
2023-10-29T03:22:28.803Z,100.00
2023-10-29T03:32:31.430Z,100.00
2023-10-29T03:42:35.621Z,100.00
2023-10-29T03:52:38.116Z,100.00
2023-10-29T04:02:40.817Z,100.00
2023-10-29T04:12:43.345Z,100.00
2023-10-29T04:22:45.897Z,100.00
2023-10-29T04:32:49.590Z,100.00
2023-10-29T04:42:52.126Z,100.00
2023-10-29T04:52:54.619Z,100.00
2023-10-29T05:02:57.206Z,100.00
2023-10-29T05:12:59.821Z,100.00
2023-10-29T05:23:02.255Z,100.00
2023-10-29T05:33:04.828Z,100.00
2023-10-29T05:43:07.417Z,100.00
2023-10-29T05:53:09.998Z,100.00
2023-10-29T06:03:12.829Z,100.00
2023-10-29T06:13:15.469Z,100.00
2023-10-29T06:23:18.018Z,100.00
2023-10-29T06:33:20.643Z,100.00
2023-10-29T06:43:23.174Z,100.00
2023-10-29T06:53:25.652Z,100.00
2023-10-29T07:03:28.358Z,100.00
2023-10-29T07:13:32.320Z,100.00
2023-10-29T07:23:34.838Z,100.00
2023-10-29T07:33:37.614Z,100.00
2023-10-29T07:43:40.250Z,100.00
2023-10-29T07:53:42.858Z,100.00
2023-10-29T08:03:46.616Z,100.00
2023-10-29T08:13:49.568Z,100.00
2023-10-29T08:23:52.196Z,100.00
2023-10-29T08:33:56.044Z,98.96
2023-10-29T08:43:59.793Z,94.28
2023-10-29T08:54:04.002Z,90.84
2023-10-29T09:04:06.888Z,86.17
2023-10-29T09:14:11.935Z,81.70
2023-10-29T09:24:14.726Z,78.83
2023-10-29T09:34:17.210Z,78.54
2023-10-29T09:44:21.996Z,78.93
2023-10-29T09:54:24.544Z,75.67
2023-10-29T10:04:27.219Z,69.34
2023-10-29T10:14:29.774Z,69.57
2023-10-29T10:24:50.476Z,62.52
2023-10-29T10:34:53.433Z,60.21
2023-10-29T10:44:59.764Z,58.13
2023-10-29T10:55:02.832Z,54.68
2023-10-29T11:05:06.797Z,55.43
2023-10-29T11:15:21.115Z,52.43
2023-10-29T11:25:29.772Z,52.60
2023-10-29T11:35:32.576Z,57.73
2023-10-29T11:45:36.041Z,54.45
2023-10-29T11:55:42.401Z,59.92
2023-10-29T12:05:51.662Z,61.08
2023-10-29T12:16:04.720Z,62.81
2023-10-29T12:26:10.916Z,64.19
2023-10-29T12:36:15.689Z,60.26
2023-10-29T12:46:25.111Z,63.11
2023-10-29T12:56:27.609Z,59.92
2023-10-29T13:06:30.257Z,66.06
2023-10-29T13:16:33.796Z,68.63
2023-10-29T13:26:37.015Z,71.50
2023-10-29T13:36:39.560Z,74.03
2023-10-29T13:46:42.047Z,75.32
2023-10-29T13:56:44.849Z,75.39
2023-10-29T14:06:49.646Z,77.13
2023-10-29T14:16:53.675Z,79.43
2023-10-29T14:26:57.559Z,78.29
2023-10-29T14:37:00.072Z,82.13
2023-10-29T14:47:02.591Z,81.38
2023-10-29T14:57:17.904Z,81.32
2023-10-29T15:07:26.692Z,83.84
2023-10-29T15:17:29.228Z,84.76
2023-10-29T15:27:31.769Z,85.11
2023-10-29T15:37:34.319Z,87.34
2023-10-29T15:47:37.164Z,86.59
2023-10-29T15:57:39.926Z,88.46
2023-10-29T16:07:42.456Z,88.70
2023-10-29T16:17:45.080Z,91.03
2023-10-29T16:27:47.598Z,91.46
2023-10-29T16:37:50.319Z,90.75
2023-10-29T16:47:52.956Z,90.07
2023-10-29T16:57:55.883Z,89.82
2023-10-29T17:07:58.405Z,91.16
2023-10-29T17:18:01.025Z,89.93
2023-10-29T17:28:04.593Z,89.35
2023-10-29T17:38:08.058Z,86.56
2023-10-29T17:48:11.444Z,85.67
2023-10-29T17:58:14.388Z,84.65
2023-10-29T18:08:17.227Z,84.32
2023-10-29T18:18:20.001Z,87.14
2023-10-29T18:28:22.904Z,88.94
2023-10-29T18:38:25.439Z,90.68
2023-10-29T18:48:28.028Z,90.67
2023-10-29T18:58:31.233Z,90.90
2023-10-29T19:08:34.066Z,90.70
2023-10-29T19:18:36.795Z,88.57
2023-10-29T19:28:39.703Z,89.76
2023-10-29T19:38:43.097Z,90.65
2023-10-29T19:48:45.974Z,89.04
2023-10-29T19:58:49.431Z,87.00
2023-10-29T20:08:52.982Z,87.76
2023-10-29T20:18:57.934Z,87.55
2023-10-29T20:29:00.580Z,86.33
2023-10-29T20:39:03.560Z,88.36
2023-10-29T20:49:06.499Z,88.52
2023-10-29T20:59:09.345Z,88.99
2023-10-29T21:09:11.900Z,89.96
2023-10-29T21:19:14.516Z,90.18
2023-10-29T21:29:17.298Z,89.96
2023-10-29T21:39:19.901Z,87.22
2023-10-29T21:49:22.724Z,88.46
2023-10-29T21:59:25.260Z,87.25
2023-10-29T22:09:29.339Z,87.85
2023-10-29T22:19:31.850Z,87.74
2023-10-29T22:29:34.433Z,87.23
2023-10-29T22:39:37.157Z,87.73
2023-10-29T22:49:39.666Z,87.76
2023-10-29T22:59:42.218Z,88.96
2023-10-29T23:09:44.854Z,88.99
2023-10-29T23:19:47.755Z,89.93
2023-10-29T23:29:50.696Z,92.02
2023-10-29T23:39:53.305Z,90.83
2023-10-29T23:49:55.815Z,89.62
2023-10-29T23:59:58.368Z,87.84
